sensor_id;sensor_type;location;lat;lon;timestamp;P1;durP1;ratioP1;P2;durP2;ratioP2
6775;SDS011;3425;51.376;5.222;2022-09-02T00:01:38;3.15;;;1.67;;
6775;SDS011;3425;51.376;5.222;2022-09-02T00:04:07;6.88;;;1.67;;
6775;SDS011;3425;51.376;5.222;2022-09-02T00:06:35;0.30;;;0.25;;
6775;SDS011;3425;51.376;5.222;2022-09-02T00:09:04;2.08;;;1.75;;
6775;SDS011;3425;51.376;5.222;2022-09-02T00:11:31;0.43;;;0.43;;
6775;SDS011;3425;51.376;5.222;2022-09-02T00:14:00;0.70;;;0.70;;
6775;SDS011;3425;51.376;5.222;2022-09-02T00:16:28;0.68;;;0.55;;
6775;SDS011;3425;51.376;5.222;2022-09-02T00:18:57;6.43;;;1.27;;
6775;SDS011;3425;51.376;5.222;2022-09-02T00:21:24;0.32;;;0.32;;
6775;SDS011;3425;51.376;5.222;2022-09-02T00:23:52;0.82;;;0.35;;
6775;SDS011;3425;51.376;5.222;2022-09-02T00:26:19;0.40;;;0.40;;
6775;SDS011;3425;51.376;5.222;2022-09-02T00:28:47;0.73;;;0.63;;
6775;SDS011;3425;51.376;5.222;2022-09-02T00:31:21;1.92;;;0.75;;
6775;SDS011;3425;51.376;5.222;2022-09-02T00:33:49;0.50;;;0.40;;
6775;SDS011;3425;51.376;5.222;2022-09-02T00:36:17;3.38;;;1.50;;
6775;SDS011;3425;51.376;5.222;2022-09-02T00:38:44;0.32;;;0.32;;
6775;SDS011;3425;51.376;5.222;2022-09-02T00:41:13;0.90;;;0.65;;
6775;SDS011;3425;51.376;5.222;2022-09-02T00:43:45;0.30;;;0.30;;
6775;SDS011;3425;51.376;5.222;2022-09-02T00:46:13;0.85;;;0.45;;
6775;SDS011;3425;51.376;5.222;2022-09-02T00:48:45;0.90;;;0.85;;
6775;SDS011;3425;51.376;5.222;2022-09-02T00:51:14;0.75;;;0.63;;
6775;SDS011;3425;51.376;5.222;2022-09-02T00:53:42;0.57;;;0.55;;
6775;SDS011;3425;51.376;5.222;2022-09-02T00:56:12;1.23;;;1.13;;
6775;SDS011;3425;51.376;5.222;2022-09-02T00:58:40;0.45;;;0.43;;
6775;SDS011;3425;51.376;5.222;2022-09-02T01:01:09;1.23;;;1.10;;
6775;SDS011;3425;51.376;5.222;2022-09-02T01:03:40;0.60;;;0.60;;
6775;SDS011;3425;51.376;5.222;2022-09-02T01:06:09;5.35;;;1.17;;
6775;SDS011;3425;51.376;5.222;2022-09-02T01:08:37;2.83;;;1.55;;
6775;SDS011;3425;51.376;5.222;2022-09-02T01:11:04;2.17;;;1.30;;
6775;SDS011;3425;51.376;5.222;2022-09-02T01:13:35;2.95;;;1.83;;
6775;SDS011;3425;51.376;5.222;2022-09-02T01:16:06;2.95;;;2.05;;
6775;SDS011;3425;51.376;5.222;2022-09-02T01:18:36;3.58;;;2.28;;
6775;SDS011;3425;51.376;5.222;2022-09-02T01:21:04;1.42;;;1.33;;
6775;SDS011;3425;51.376;5.222;2022-09-02T01:23:31;1.10;;;1.00;;
6775;SDS011;3425;51.376;5.222;2022-09-02T01:26:00;3.40;;;2.05;;
6775;SDS011;3425;51.376;5.222;2022-09-02T01:28:28;8.65;;;2.88;;
6775;SDS011;3425;51.376;5.222;2022-09-02T01:30:55;1.60;;;1.45;;
6775;SDS011;3425;51.376;5.222;2022-09-02T01:33:22;3.72;;;2.35;;
6775;SDS011;3425;51.376;5.222;2022-09-02T01:35:51;5.25;;;2.05;;
6775;SDS011;3425;51.376;5.222;2022-09-02T01:38:19;3.33;;;2.38;;
6775;SDS011;3425;51.376;5.222;2022-09-02T01:40:46;3.10;;;1.33;;
6775;SDS011;3425;51.376;5.222;2022-09-02T01:43:15;4.97;;;3.28;;
6775;SDS011;3425;51.376;5.222;2022-09-02T01:45:44;2.60;;;1.63;;
6775;SDS011;3425;51.376;5.222;2022-09-02T01:48:12;1.13;;;1.02;;
6775;SDS011;3425;51.376;5.222;2022-09-02T01:50:50;3.60;;;2.72;;
6775;SDS011;3425;51.376;5.222;2022-09-02T01:53:18;18.38;;;5.43;;
6775;SDS011;3425;51.376;5.222;2022-09-02T01:55:45;3.00;;;2.63;;
6775;SDS011;3425;51.376;5.222;2022-09-02T01:58:14;3.13;;;1.85;;
6775;SDS011;3425;51.376;5.222;2022-09-02T02:00:41;4.55;;;3.50;;
6775;SDS011;3425;51.376;5.222;2022-09-02T02:03:09;1.90;;;1.58;;
6775;SDS011;3425;51.376;5.222;2022-09-02T02:05:36;11.70;;;3.05;;
6775;SDS011;3425;51.376;5.222;2022-09-02T02:08:04;1.70;;;1.10;;
6775;SDS011;3425;51.376;5.222;2022-09-02T02:10:31;3.10;;;2.65;;
6775;SDS011;3425;51.376;5.222;2022-09-02T02:12:59;2.25;;;1.55;;
6775;SDS011;3425;51.376;5.222;2022-09-02T02:15:27;19.35;;;2.72;;
6775;SDS011;3425;51.376;5.222;2022-09-02T02:17:53;4.65;;;2.63;;
6775;SDS011;3425;51.376;5.222;2022-09-02T02:20:20;3.45;;;3.08;;
6775;SDS011;3425;51.376;5.222;2022-09-02T02:22:48;2.75;;;2.25;;
6775;SDS011;3425;51.376;5.222;2022-09-02T02:25:15;14.93;;;3.88;;
6775;SDS011;3425;51.376;5.222;2022-09-02T02:27:44;3.03;;;2.20;;
6775;SDS011;3425;51.376;5.222;2022-09-02T02:30:12;2.47;;;2.25;;
6775;SDS011;3425;51.376;5.222;2022-09-02T02:32:40;2.47;;;2.20;;
6775;SDS011;3425;51.376;5.222;2022-09-02T02:35:08;4.45;;;2.80;;
6775;SDS011;3425;51.376;5.222;2022-09-02T02:37:36;2.80;;;1.70;;
6775;SDS011;3425;51.376;5.222;2022-09-02T02:40:04;1.70;;;1.60;;
6775;SDS011;3425;51.376;5.222;2022-09-02T02:42:32;5.13;;;4.22;;
6775;SDS011;3425;51.376;5.222;2022-09-02T02:45:01;12.32;;;3.97;;
6775;SDS011;3425;51.376;5.222;2022-09-02T02:47:28;0.93;;;0.75;;
6775;SDS011;3425;51.376;5.222;2022-09-02T02:49:55;3.70;;;3.40;;
6775;SDS011;3425;51.376;5.222;2022-09-02T02:52:23;44.25;;;5.35;;
6775;SDS011;3425;51.376;5.222;2022-09-02T02:54:50;12.10;;;3.17;;
6775;SDS011;3425;51.376;5.222;2022-09-02T02:57:17;4.82;;;2.85;;
6775;SDS011;3425;51.376;5.222;2022-09-02T02:59:44;8.93;;;3.10;;
6775;SDS011;3425;51.376;5.222;2022-09-02T03:02:11;3.65;;;3.00;;
6775;SDS011;3425;51.376;5.222;2022-09-02T03:04:39;1.95;;;1.85;;
6775;SDS011;3425;51.376;5.222;2022-09-02T03:07:07;3.03;;;2.15;;
6775;SDS011;3425;51.376;5.222;2022-09-02T03:09:35;6.13;;;2.80;;
6775;SDS011;3425;51.376;5.222;2022-09-02T03:12:02;5.55;;;2.50;;
6775;SDS011;3425;51.376;5.222;2022-09-02T03:14:30;7.05;;;2.88;;
6775;SDS011;3425;51.376;5.222;2022-09-02T03:16:58;3.00;;;1.92;;
6775;SDS011;3425;51.376;5.222;2022-09-02T03:19:25;13.43;;;3.63;;
6775;SDS011;3425;51.376;5.222;2022-09-02T03:21:53;1.70;;;1.38;;
6775;SDS011;3425;51.376;5.222;2022-09-02T03:24:20;1.95;;;1.25;;
6775;SDS011;3425;51.376;5.222;2022-09-02T03:26:48;9.68;;;3.28;;
6775;SDS011;3425;51.376;5.222;2022-09-02T03:29:15;5.20;;;2.72;;
6775;SDS011;3425;51.376;5.222;2022-09-02T03:31:43;1.60;;;1.50;;
6775;SDS011;3425;51.376;5.222;2022-09-02T03:34:11;7.25;;;1.90;;
6775;SDS011;3425;51.376;5.222;2022-09-02T03:36:38;1.27;;;1.27;;
6775;SDS011;3425;51.376;5.222;2022-09-02T03:39:06;1.27;;;1.17;;
6775;SDS011;3425;51.376;5.222;2022-09-02T03:41:35;24.05;;;6.75;;
6775;SDS011;3425;51.376;5.222;2022-09-02T03:44:02;3.00;;;2.17;;
6775;SDS011;3425;51.376;5.222;2022-09-02T03:46:31;4.53;;;2.42;;
6775;SDS011;3425;51.376;5.222;2022-09-02T03:49:00;4.53;;;2.25;;
6775;SDS011;3425;51.376;5.222;2022-09-02T03:51:27;17.05;;;4.35;;
6775;SDS011;3425;51.376;5.222;2022-09-02T03:53:55;9.27;;;2.45;;
6775;SDS011;3425;51.376;5.222;2022-09-02T03:56:22;1.08;;;1.05;;
6775;SDS011;3425;51.376;5.222;2022-09-02T03:58:50;6.93;;;3.60;;
6775;SDS011;3425;51.376;5.222;2022-09-02T04:01:19;5.90;;;2.47;;
6775;SDS011;3425;51.376;5.222;2022-09-02T04:03:47;2.30;;;1.58;;
6775;SDS011;3425;51.376;5.222;2022-09-02T04:06:15;0.85;;;0.85;;
6775;SDS011;3425;51.376;5.222;2022-09-02T04:08:45;4.90;;;2.38;;
6775;SDS011;3425;51.376;5.222;2022-09-02T04:11:13;1.60;;;1.50;;
6775;SDS011;3425;51.376;5.222;2022-09-02T04:13:43;6.40;;;2.60;;
6775;SDS011;3425;51.376;5.222;2022-09-02T04:16:12;3.45;;;1.75;;
6775;SDS011;3425;51.376;5.222;2022-09-02T04:18:40;4.63;;;3.85;;
6775;SDS011;3425;51.376;5.222;2022-09-02T04:21:08;1.58;;;1.48;;
6775;SDS011;3425;51.376;5.222;2022-09-02T04:23:35;5.13;;;1.05;;
6775;SDS011;3425;51.376;5.222;2022-09-02T04:26:07;8.07;;;1.88;;
6775;SDS011;3425;51.376;5.222;2022-09-02T04:28:35;1.65;;;1.50;;
6775;SDS011;3425;51.376;5.222;2022-09-02T04:31:06;3.45;;;2.75;;
6775;SDS011;3425;51.376;5.222;2022-09-02T04:33:33;5.68;;;2.63;;
6775;SDS011;3425;51.376;5.222;2022-09-02T04:36:05;3.58;;;2.35;;
6775;SDS011;3425;51.376;5.222;2022-09-02T04:38:33;7.78;;;2.33;;
6775;SDS011;3425;51.376;5.222;2022-09-02T04:41:04;1.38;;;1.13;;
6775;SDS011;3425;51.376;5.222;2022-09-02T04:43:32;1.52;;;1.42;;
6775;SDS011;3425;51.376;5.222;2022-09-02T04:45:59;1.83;;;1.65;;
6775;SDS011;3425;51.376;5.222;2022-09-02T04:48:27;9.63;;;2.67;;
6775;SDS011;3425;51.376;5.222;2022-09-02T04:50:54;10.18;;;1.40;;
6775;SDS011;3425;51.376;5.222;2022-09-02T04:53:22;0.85;;;0.68;;
6775;SDS011;3425;51.376;5.222;2022-09-02T04:55:49;2.15;;;1.20;;
6775;SDS011;3425;51.376;5.222;2022-09-02T04:58:23;2.33;;;1.70;;
6775;SDS011;3425;51.376;5.222;2022-09-02T05:00:50;2.22;;;1.83;;
6775;SDS011;3425;51.376;5.222;2022-09-02T05:03:18;5.63;;;1.48;;
6775;SDS011;3425;51.376;5.222;2022-09-02T05:05:45;2.00;;;1.55;;
6775;SDS011;3425;51.376;5.222;2022-09-02T05:08:13;1.90;;;1.10;;
6775;SDS011;3425;51.376;5.222;2022-09-02T05:10:41;1.40;;;1.30;;
6775;SDS011;3425;51.376;5.222;2022-09-02T05:13:08;16.42;;;3.22;;
6775;SDS011;3425;51.376;5.222;2022-09-02T05:15:37;2.70;;;1.13;;
6775;SDS011;3425;51.376;5.222;2022-09-02T05:18:06;1.63;;;1.27;;
6775;SDS011;3425;51.376;5.222;2022-09-02T05:20:33;0.75;;;0.60;;
6775;SDS011;3425;51.376;5.222;2022-09-02T05:23:00;7.18;;;2.38;;
6775;SDS011;3425;51.376;5.222;2022-09-02T05:25:27;0.93;;;0.85;;
6775;SDS011;3425;51.376;5.222;2022-09-02T05:27:55;0.75;;;0.75;;
6775;SDS011;3425;51.376;5.222;2022-09-02T05:30:22;2.30;;;2.10;;
6775;SDS011;3425;51.376;5.222;2022-09-02T05:32:49;1.38;;;0.98;;
6775;SDS011;3425;51.376;5.222;2022-09-02T05:35:17;4.78;;;2.70;;
6775;SDS011;3425;51.376;5.222;2022-09-02T05:37:44;2.35;;;1.90;;
6775;SDS011;3425;51.376;5.222;2022-09-02T05:40:11;14.07;;;1.08;;
6775;SDS011;3425;51.376;5.222;2022-09-02T05:42:41;0.38;;;0.38;;
6775;SDS011;3425;51.376;5.222;2022-09-02T05:45:08;0.75;;;0.60;;
6775;SDS011;3425;51.376;5.222;2022-09-02T05:47:40;2.50;;;1.60;;
6775;SDS011;3425;51.376;5.222;2022-09-02T05:50:08;1.33;;;1.20;;
6775;SDS011;3425;51.376;5.222;2022-09-02T05:52:39;1.52;;;0.88;;
6775;SDS011;3425;51.376;5.222;2022-09-02T05:55:06;1.45;;;0.68;;
6775;SDS011;3425;51.376;5.222;2022-09-02T05:57:34;1.70;;;1.13;;
6775;SDS011;3425;51.376;5.222;2022-09-02T06:00:03;1.98;;;1.02;;
6775;SDS011;3425;51.376;5.222;2022-09-02T06:02:31;0.20;;;0.20;;
6775;SDS011;3425;51.376;5.222;2022-09-02T06:04:58;0.55;;;0.55;;
6775;SDS011;3425;51.376;5.222;2022-09-02T06:07:25;0.20;;;0.20;;
6775;SDS011;3425;51.376;5.222;2022-09-02T06:09:53;0.22;;;0.22;;
6775;SDS011;3425;51.376;5.222;2022-09-02T06:12:20;0.20;;;0.20;;
6775;SDS011;3425;51.376;5.222;2022-09-02T06:14:48;0.70;;;0.68;;
6775;SDS011;3425;51.376;5.222;2022-09-02T06:17:16;13.30;;;2.78;;
6775;SDS011;3425;51.376;5.222;2022-09-02T06:19:43;0.35;;;0.35;;
6775;SDS011;3425;51.376;5.222;2022-09-02T06:22:11;0.17;;;0.17;;
6775;SDS011;3425;51.376;5.222;2022-09-02T06:24:38;0.28;;;0.20;;
6775;SDS011;3425;51.376;5.222;2022-09-02T06:27:05;0.20;;;0.20;;
6775;SDS011;3425;51.376;5.222;2022-09-02T06:29:33;1.00;;;0.73;;
6775;SDS011;3425;51.376;5.222;2022-09-02T06:32:00;1.20;;;0.30;;
6775;SDS011;3425;51.376;5.222;2022-09-02T06:34:28;0.28;;;0.28;;
6775;SDS011;3425;51.376;5.222;2022-09-02T06:36:55;0.10;;;0.10;;
6775;SDS011;3425;51.376;5.222;2022-09-02T06:39:23;1.05;;;0.70;;
6775;SDS011;3425;51.376;5.222;2022-09-02T06:41:51;4.05;;;0.30;;
6775;SDS011;3425;51.376;5.222;2022-09-02T06:44:18;11.15;;;0.90;;
6775;SDS011;3425;51.376;5.222;2022-09-02T06:46:56;3.60;;;0.45;;
6775;SDS011;3425;51.376;5.222;2022-09-02T06:49:24;0.30;;;0.30;;
6775;SDS011;3425;51.376;5.222;2022-09-02T06:51:53;2.83;;;0.43;;
6775;SDS011;3425;51.376;5.222;2022-09-02T06:54:22;2.38;;;0.65;;
6775;SDS011;3425;51.376;5.222;2022-09-02T06:56:50;0.47;;;0.47;;
6775;SDS011;3425;51.376;5.222;2022-09-02T06:59:18;1.65;;;0.80;;
6775;SDS011;3425;51.376;5.222;2022-09-02T07:01:46;4.28;;;0.68;;
6775;SDS011;3425;51.376;5.222;2022-09-02T07:04:14;0.20;;;0.20;;
6775;SDS011;3425;51.376;5.222;2022-09-02T07:07:02;0.10;;;0.10;;
6775;SDS011;3425;51.376;5.222;2022-09-02T07:09:30;0.30;;;0.30;;
6775;SDS011;3425;51.376;5.222;2022-09-02T07:11:58;0.10;;;0.10;;
6775;SDS011;3425;51.376;5.222;2022-09-02T07:14:30;1.25;;;0.45;;
6775;SDS011;3425;51.376;5.222;2022-09-02T07:17:01;0.10;;;0.10;;
6775;SDS011;3425;51.376;5.222;2022-09-02T07:19:29;3.03;;;1.27;;
6775;SDS011;3425;51.376;5.222;2022-09-02T07:21:56;0.57;;;0.20;;
6775;SDS011;3425;51.376;5.222;2022-09-02T07:24:25;0.20;;;0.20;;
6775;SDS011;3425;51.376;5.222;2022-09-02T07:26:52;0.40;;;0.40;;
6775;SDS011;3425;51.376;5.222;2022-09-02T07:29:21;0.17;;;0.17;;
6775;SDS011;3425;51.376;5.222;2022-09-02T07:31:48;0.80;;;0.57;;
6775;SDS011;3425;51.376;5.222;2022-09-02T07:34:16;1.85;;;0.45;;
6775;SDS011;3425;51.376;5.222;2022-09-02T07:36:43;0.25;;;0.22;;
6775;SDS011;3425;51.376;5.222;2022-09-02T07:39:16;0.05;;;0.05;;
6775;SDS011;3425;51.376;5.222;2022-09-02T07:41:44;1.15;;;0.43;;
6775;SDS011;3425;51.376;5.222;2022-09-02T07:44:12;0.10;;;0.10;;
6775;SDS011;3425;51.376;5.222;2022-09-02T07:46:39;1.02;;;0.65;;
6775;SDS011;3425;51.376;5.222;2022-09-02T07:49:10;0.28;;;0.28;;
6775;SDS011;3425;51.376;5.222;2022-09-02T07:51:38;0.70;;;0.50;;
6775;SDS011;3425;51.376;5.222;2022-09-02T07:54:07;0.52;;;0.52;;
6775;SDS011;3425;51.376;5.222;2022-09-02T07:56:35;0.90;;;0.70;;
6775;SDS011;3425;51.376;5.222;2022-09-02T07:59:03;0.00;;;0.00;;
6775;SDS011;3425;51.376;5.222;2022-09-02T08:01:30;0.20;;;0.20;;
6775;SDS011;3425;51.376;5.222;2022-09-02T08:03:57;0.73;;;0.47;;
6775;SDS011;3425;51.376;5.222;2022-09-02T08:06:30;1.35;;;0.32;;
6775;SDS011;3425;51.376;5.222;2022-09-02T08:09:01;0.73;;;0.73;;
6775;SDS011;3425;51.376;5.222;2022-09-02T08:11:29;0.10;;;0.10;;
6775;SDS011;3425;51.376;5.222;2022-09-02T08:13:58;0.20;;;0.20;;
6775;SDS011;3425;51.376;5.222;2022-09-02T08:16:25;0.10;;;0.10;;
6775;SDS011;3425;51.376;5.222;2022-09-02T08:18:54;3.25;;;1.30;;
6775;SDS011;3425;51.376;5.222;2022-09-02T08:21:21;0.50;;;0.50;;
6775;SDS011;3425;51.376;5.222;2022-09-02T08:23:50;27.63;;;1.23;;
6775;SDS011;3425;51.376;5.222;2022-09-02T08:26:18;19.38;;;1.00;;
6775;SDS011;3425;51.376;5.222;2022-09-02T08:28:46;0.28;;;0.22;;
6775;SDS011;3425;51.376;5.222;2022-09-02T08:31:13;0.22;;;0.22;;
6775;SDS011;3425;51.376;5.222;2022-09-02T08:33:41;1.13;;;0.13;;
6775;SDS011;3425;51.376;5.222;2022-09-02T08:36:09;1.48;;;0.50;;
6775;SDS011;3425;51.376;5.222;2022-09-02T08:38:40;0.05;;;0.05;;
6775;SDS011;3425;51.376;5.222;2022-09-02T08:41:29;0.00;;;0.00;;
6775;SDS011;3425;51.376;5.222;2022-09-02T08:43:59;0.10;;;0.10;;
6775;SDS011;3425;51.376;5.222;2022-09-02T08:46:27;0.20;;;0.20;;
6775;SDS011;3425;51.376;5.222;2022-09-02T08:48:58;2.20;;;1.15;;
6775;SDS011;3425;51.376;5.222;2022-09-02T08:51:29;0.65;;;0.30;;
6775;SDS011;3425;51.376;5.222;2022-09-02T08:54:15;7.75;;;0.38;;
6775;SDS011;3425;51.376;5.222;2022-09-02T08:56:46;0.10;;;0.10;;
6775;SDS011;3425;51.376;5.222;2022-09-02T08:59:23;0.10;;;0.10;;
6775;SDS011;3425;51.376;5.222;2022-09-02T09:17:43;0.00;;;0.00;;
6775;SDS011;3425;51.376;5.222;2022-09-02T09:20:18;0.90;;;0.30;;
6775;SDS011;3425;51.376;5.222;2022-09-02T09:22:47;0.10;;;0.10;;
6775;SDS011;3425;51.376;5.222;2022-09-02T09:25:16;0.20;;;0.17;;
6775;SDS011;3425;51.376;5.222;2022-09-02T09:27:44;4.35;;;1.13;;
6775;SDS011;3425;51.376;5.222;2022-09-02T09:30:12;1.00;;;0.90;;
6775;SDS011;3425;51.376;5.222;2022-09-02T09:33:15;0.13;;;0.13;;
6775;SDS011;3425;51.376;5.222;2022-09-02T09:35:56;0.03;;;0.03;;
6775;SDS011;3425;51.376;5.222;2022-09-02T09:38:31;0.38;;;0.35;;
6775;SDS011;3425;51.376;5.222;2022-09-02T09:41:08;4.68;;;1.52;;
6775;SDS011;3425;51.376;5.222;2022-09-02T09:43:36;0.10;;;0.10;;
6775;SDS011;3425;51.376;5.222;2022-09-02T09:49:06;0.10;;;0.10;;
6775;SDS011;3425;51.376;5.222;2022-09-02T09:51:36;0.00;;;0.00;;
6775;SDS011;3425;51.376;5.222;2022-09-02T09:54:15;0.10;;;0.10;;
6775;SDS011;3425;51.376;5.222;2022-09-02T09:56:42;1.02;;;0.90;;
6775;SDS011;3425;51.376;5.222;2022-09-02T09:59:30;0.00;;;0.00;;
6775;SDS011;3425;51.376;5.222;2022-09-02T10:01:57;0.00;;;0.00;;
6775;SDS011;3425;51.376;5.222;2022-09-02T10:04:27;0.13;;;0.13;;
6775;SDS011;3425;51.376;5.222;2022-09-02T10:07:11;0.85;;;0.60;;
6775;SDS011;3425;51.376;5.222;2022-09-02T10:09:39;5.15;;;0.75;;
6775;SDS011;3425;51.376;5.222;2022-09-02T10:12:10;0.00;;;0.00;;
6775;SDS011;3425;51.376;5.222;2022-09-02T10:17:13;0.25;;;0.25;;
6775;SDS011;3425;51.376;5.222;2022-09-02T10:30:35;0.10;;;0.10;;
6775;SDS011;3425;51.376;5.222;2022-09-02T10:33:14;0.00;;;0.00;;
6775;SDS011;3425;51.376;5.222;2022-09-02T10:35:45;0.00;;;0.00;;
6775;SDS011;3425;51.376;5.222;2022-09-02T10:46:06;0.00;;;0.00;;
6775;SDS011;3425;51.376;5.222;2022-09-02T10:48:56;0.38;;;0.30;;
6775;SDS011;3425;51.376;5.222;2022-09-02T10:56:58;0.22;;;0.08;;
6775;SDS011;3425;51.376;5.222;2022-09-02T10:59:38;5.18;;;0.65;;
6775;SDS011;3425;51.376;5.222;2022-09-02T11:04:43;0.50;;;0.20;;
6775;SDS011;3425;51.376;5.222;2022-09-02T11:07:15;0.00;;;0.00;;
6775;SDS011;3425;51.376;5.222;2022-09-02T11:09:53;0.00;;;0.00;;
6775;SDS011;3425;51.376;5.222;2022-09-02T11:12:21;0.00;;;0.00;;
6775;SDS011;3425;51.376;5.222;2022-09-02T11:14:55;0.03;;;0.03;;
6775;SDS011;3425;51.376;5.222;2022-09-02T11:22:29;0.00;;;0.00;;
6775;SDS011;3425;51.376;5.222;2022-09-02T11:30:19;0.00;;;0.00;;
6775;SDS011;3425;51.376;5.222;2022-09-02T11:33:33;0.00;;;0.00;;
6775;SDS011;3425;51.376;5.222;2022-09-02T11:35:36;0.57;;;0.57;;
6775;SDS011;3425;51.376;5.222;2022-09-02T11:38:05;0.90;;;0.45;;
6775;SDS011;3425;51.376;5.222;2022-09-02T11:40:43;0.00;;;0.00;;
6775;SDS011;3425;51.376;5.222;2022-09-02T11:43:41;0.43;;;0.30;;
6775;SDS011;3425;51.376;5.222;2022-09-02T11:53:50;0.10;;;0.10;;
6775;SDS011;3425;51.376;5.222;2022-09-02T11:56:24;0.00;;;0.00;;
6775;SDS011;3425;51.376;5.222;2022-09-02T11:58:54;0.35;;;0.13;;
6775;SDS011;3425;51.376;5.222;2022-09-02T12:04:05;0.00;;;0.00;;
6775;SDS011;3425;51.376;5.222;2022-09-02T12:09:48;0.10;;;0.10;;
6775;SDS011;3425;51.376;5.222;2022-09-02T12:15:08;0.43;;;0.43;;
6775;SDS011;3425;51.376;5.222;2022-09-02T12:23:07;0.00;;;0.00;;
6775;SDS011;3425;51.376;5.222;2022-09-02T12:25:36;0.10;;;0.10;;
6775;SDS011;3425;51.376;5.222;2022-09-02T12:28:15;0.50;;;0.50;;
6775;SDS011;3425;51.376;5.222;2022-09-02T12:33:30;0.93;;;0.35;;
6775;SDS011;3425;51.376;5.222;2022-09-02T12:35:58;0.00;;;0.00;;
6775;SDS011;3425;51.376;5.222;2022-09-02T12:38:27;0.40;;;0.13;;
6775;SDS011;3425;51.376;5.222;2022-09-02T12:48:58;0.00;;;0.00;;
6775;SDS011;3425;51.376;5.222;2022-09-02T12:54:14;0.00;;;0.00;;
6775;SDS011;3425;51.376;5.222;2022-09-02T12:56:48;0.00;;;0.00;;
6775;SDS011;3425;51.376;5.222;2022-09-02T12:59:29;0.10;;;0.10;;
6775;SDS011;3425;51.376;5.222;2022-09-02T13:07:20;0.65;;;0.32;;
6775;SDS011;3425;51.376;5.222;2022-09-02T13:15:50;0.35;;;0.35;;
6775;SDS011;3425;51.376;5.222;2022-09-02T13:31:59;0.00;;;0.00;;
6775;SDS011;3425;51.376;5.222;2022-09-02T13:34:27;0.00;;;0.00;;
6775;SDS011;3425;51.376;5.222;2022-09-02T13:36:55;0.10;;;0.10;;
6775;SDS011;3425;51.376;5.222;2022-09-02T13:39:23;0.28;;;0.28;;
6775;SDS011;3425;51.376;5.222;2022-09-02T13:41:50;0.65;;;0.30;;
6775;SDS011;3425;51.376;5.222;2022-09-02T13:44:22;0.00;;;0.00;;
6775;SDS011;3425;51.376;5.222;2022-09-02T13:47:03;0.00;;;0.00;;
6775;SDS011;3425;51.376;5.222;2022-09-02T13:49:34;0.32;;;0.32;;
6775;SDS011;3425;51.376;5.222;2022-09-02T13:52:04;0.00;;;0.00;;
6775;SDS011;3425;51.376;5.222;2022-09-02T13:54:33;0.45;;;0.38;;
6775;SDS011;3425;51.376;5.222;2022-09-02T13:57:06;0.03;;;0.03;;
6775;SDS011;3425;51.376;5.222;2022-09-02T13:59:35;0.40;;;0.25;;
6775;SDS011;3425;51.376;5.222;2022-09-02T14:05:32;0.00;;;0.00;;
6775;SDS011;3425;51.376;5.222;2022-09-02T14:07:41;0.00;;;0.00;;
6775;SDS011;3425;51.376;5.222;2022-09-02T14:10:10;0.00;;;0.00;;
6775;SDS011;3425;51.376;5.222;2022-09-02T14:12:39;0.00;;;0.00;;
6775;SDS011;3425;51.376;5.222;2022-09-02T14:15:09;0.00;;;0.00;;
6775;SDS011;3425;51.376;5.222;2022-09-02T14:17:40;0.73;;;0.05;;
6775;SDS011;3425;51.376;5.222;2022-09-02T14:22:35;0.93;;;0.30;;
6775;SDS011;3425;51.376;5.222;2022-09-02T14:25:14;0.00;;;0.00;;
6775;SDS011;3425;51.376;5.222;2022-09-02T14:27:48;0.00;;;0.00;;
6775;SDS011;3425;51.376;5.222;2022-09-02T14:30:33;0.00;;;0.00;;
6775;SDS011;3425;51.376;5.222;2022-09-02T14:38:27;0.00;;;0.00;;
6775;SDS011;3425;51.376;5.222;2022-09-02T14:40:59;0.13;;;0.13;;
6775;SDS011;3425;51.376;5.222;2022-09-02T14:43:26;0.30;;;0.30;;
6775;SDS011;3425;51.376;5.222;2022-09-02T14:46:02;0.00;;;0.00;;
6775;SDS011;3425;51.376;5.222;2022-09-02T14:48:33;0.50;;;0.50;;
6775;SDS011;3425;51.376;5.222;2022-09-02T14:51:02;0.28;;;0.28;;
6775;SDS011;3425;51.376;5.222;2022-09-02T14:53:31;0.15;;;0.15;;
6775;SDS011;3425;51.376;5.222;2022-09-02T14:56:01;0.17;;;0.17;;
6775;SDS011;3425;51.376;5.222;2022-09-02T14:58:31;0.10;;;0.10;;
6775;SDS011;3425;51.376;5.222;2022-09-02T15:00:59;0.32;;;0.08;;
6775;SDS011;3425;51.376;5.222;2022-09-02T15:03:28;0.00;;;0.00;;
6775;SDS011;3425;51.376;5.222;2022-09-02T15:05:55;0.00;;;0.00;;
6775;SDS011;3425;51.376;5.222;2022-09-02T15:08:23;0.00;;;0.00;;
6775;SDS011;3425;51.376;5.222;2022-09-02T15:10:51;0.22;;;0.20;;
6775;SDS011;3425;51.376;5.222;2022-09-02T15:15:47;0.22;;;0.22;;
6775;SDS011;3425;51.376;5.222;2022-09-02T15:18:15;0.63;;;0.63;;
6775;SDS011;3425;51.376;5.222;2022-09-02T15:20:44;0.08;;;0.08;;
6775;SDS011;3425;51.376;5.222;2022-09-02T15:23:12;0.00;;;0.00;;
6775;SDS011;3425;51.376;5.222;2022-09-02T15:25:40;0.13;;;0.13;;
6775;SDS011;3425;51.376;5.222;2022-09-02T15:28:08;0.00;;;0.00;;
6775;SDS011;3425;51.376;5.222;2022-09-02T15:30:36;0.00;;;0.00;;
6775;SDS011;3425;51.376;5.222;2022-09-02T15:33:04;0.43;;;0.25;;
6775;SDS011;3425;51.376;5.222;2022-09-02T15:35:32;0.93;;;0.32;;
6775;SDS011;3425;51.376;5.222;2022-09-02T15:38:00;0.00;;;0.00;;
6775;SDS011;3425;51.376;5.222;2022-09-02T15:40:28;0.28;;;0.10;;
6775;SDS011;3425;51.376;5.222;2022-09-02T15:42:57;0.05;;;0.05;;
6775;SDS011;3425;51.376;5.222;2022-09-02T15:45:25;0.00;;;0.00;;
6775;SDS011;3425;51.376;5.222;2022-09-02T15:47:56;0.03;;;0.03;;
6775;SDS011;3425;51.376;5.222;2022-09-02T15:50:24;0.35;;;0.35;;
6775;SDS011;3425;51.376;5.222;2022-09-02T15:52:53;0.00;;;0.00;;
6775;SDS011;3425;51.376;5.222;2022-09-02T15:55:21;0.00;;;0.00;;
6775;SDS011;3425;51.376;5.222;2022-09-02T15:57:54;0.00;;;0.00;;
6775;SDS011;3425;51.376;5.222;2022-09-02T16:00:22;0.00;;;0.00;;
6775;SDS011;3425;51.376;5.222;2022-09-02T16:02:54;0.00;;;0.00;;
6775;SDS011;3425;51.376;5.222;2022-09-02T16:05:22;0.10;;;0.08;;
6775;SDS011;3425;51.376;5.222;2022-09-02T16:07:50;0.00;;;0.00;;
6775;SDS011;3425;51.376;5.222;2022-09-02T16:10:20;4.78;;;1.13;;
6775;SDS011;3425;51.376;5.222;2022-09-02T16:12:47;0.22;;;0.22;;
6775;SDS011;3425;51.376;5.222;2022-09-02T16:15:14;0.00;;;0.00;;
6775;SDS011;3425;51.376;5.222;2022-09-02T16:17:42;0.10;;;0.10;;
6775;SDS011;3425;51.376;5.222;2022-09-02T16:20:09;0.03;;;0.03;;
6775;SDS011;3425;51.376;5.222;2022-09-02T16:22:37;0.10;;;0.10;;
6775;SDS011;3425;51.376;5.222;2022-09-02T16:25:05;0.00;;;0.00;;
6775;SDS011;3425;51.376;5.222;2022-09-02T16:27:32;0.47;;;0.38;;
6775;SDS011;3425;51.376;5.222;2022-09-02T16:30:18;0.00;;;0.00;;
6775;SDS011;3425;51.376;5.222;2022-09-02T16:32:46;0.10;;;0.10;;
6775;SDS011;3425;51.376;5.222;2022-09-02T16:35:15;0.00;;;0.00;;
6775;SDS011;3425;51.376;5.222;2022-09-02T16:37:44;0.10;;;0.10;;
6775;SDS011;3425;51.376;5.222;2022-09-02T16:40:11;0.00;;;0.00;;
6775;SDS011;3425;51.376;5.222;2022-09-02T16:42:47;0.00;;;0.00;;
6775;SDS011;3425;51.376;5.222;2022-09-02T16:45:16;0.05;;;0.05;;
6775;SDS011;3425;51.376;5.222;2022-09-02T16:47:44;1.17;;;0.32;;
6775;SDS011;3425;51.376;5.222;2022-09-02T16:50:12;0.00;;;0.00;;
6775;SDS011;3425;51.376;5.222;2022-09-02T16:52:39;0.30;;;0.30;;
6775;SDS011;3425;51.376;5.222;2022-09-02T16:55:06;0.10;;;0.10;;
6775;SDS011;3425;51.376;5.222;2022-09-02T16:57:34;0.00;;;0.00;;
6775;SDS011;3425;51.376;5.222;2022-09-02T17:00:02;0.10;;;0.10;;
6775;SDS011;3425;51.376;5.222;2022-09-02T17:02:29;0.10;;;0.10;;
6775;SDS011;3425;51.376;5.222;2022-09-02T17:04:57;0.00;;;0.00;;
6775;SDS011;3425;51.376;5.222;2022-09-02T17:07:24;0.00;;;0.00;;
6775;SDS011;3425;51.376;5.222;2022-09-02T17:09:52;0.32;;;0.28;;
6775;SDS011;3425;51.376;5.222;2022-09-02T17:12:19;0.05;;;0.05;;
6775;SDS011;3425;51.376;5.222;2022-09-02T17:14:46;0.00;;;0.00;;
6775;SDS011;3425;51.376;5.222;2022-09-02T17:17:14;0.03;;;0.03;;
6775;SDS011;3425;51.376;5.222;2022-09-02T17:19:42;0.10;;;0.10;;
6775;SDS011;3425;51.376;5.222;2022-09-02T17:22:09;0.00;;;0.00;;
6775;SDS011;3425;51.376;5.222;2022-09-02T17:24:37;0.65;;;0.13;;
6775;SDS011;3425;51.376;5.222;2022-09-02T17:27:07;0.10;;;0.10;;
6775;SDS011;3425;51.376;5.222;2022-09-02T17:29:34;0.00;;;0.00;;
6775;SDS011;3425;51.376;5.222;2022-09-02T17:32:18;0.00;;;0.00;;
6775;SDS011;3425;51.376;5.222;2022-09-02T17:34:47;0.10;;;0.10;;
6775;SDS011;3425;51.376;5.222;2022-09-02T17:37:16;0.20;;;0.20;;
6775;SDS011;3425;51.376;5.222;2022-09-02T17:39:43;0.00;;;0.00;;
6775;SDS011;3425;51.376;5.222;2022-09-02T17:42:11;41.53;;;1.45;;